sensor_id;sensor_type;location;lat;lon;timestamp;P1;durP1;ratioP1;P2;durP2;ratioP2
16272;SDS011;8244;50.044;9.006;2022-09-04T00:01:16;2.22;;;2.00;;
16272;SDS011;8244;50.044;9.006;2022-09-04T00:06:25;4.10;;;2.47;;
16272;SDS011;8244;50.044;9.006;2022-09-04T00:11:34;3.85;;;2.58;;
16272;SDS011;8244;50.044;9.006;2022-09-04T00:16:47;2.90;;;2.28;;
16272;SDS011;8244;50.044;9.006;2022-09-04T00:21:55;2.67;;;2.10;;
16272;SDS011;8244;50.044;9.006;2022-09-04T00:27:01;5.55;;;2.35;;
16272;SDS011;8244;50.044;9.006;2022-09-04T00:32:11;4.78;;;2.55;;
16272;SDS011;8244;50.044;9.006;2022-09-04T00:37:21;2.50;;;2.30;;
16272;SDS011;8244;50.044;9.006;2022-09-04T00:42:36;5.88;;;2.75;;
16272;SDS011;8244;50.044;9.006;2022-09-04T00:47:58;4.47;;;2.65;;
16272;SDS011;8244;50.044;9.006;2022-09-04T00:53:11;4.00;;;2.47;;
16272;SDS011;8244;50.044;9.006;2022-09-04T00:58:33;2.83;;;2.60;;
16272;SDS011;8244;50.044;9.006;2022-09-04T01:03:53;2.92;;;2.60;;
16272;SDS011;8244;50.044;9.006;2022-09-04T01:09:11;4.32;;;2.50;;
16272;SDS011;8244;50.044;9.006;2022-09-04T01:14:38;2.63;;;2.38;;
16272;SDS011;8244;50.044;9.006;2022-09-04T01:19:47;3.00;;;2.60;;
16272;SDS011;8244;50.044;9.006;2022-09-04T01:25:02;3.78;;;2.60;;
16272;SDS011;8244;50.044;9.006;2022-09-04T01:30:13;2.58;;;2.33;;
16272;SDS011;8244;50.044;9.006;2022-09-04T01:35:20;2.80;;;2.20;;
16272;SDS011;8244;50.044;9.006;2022-09-04T01:40:32;2.78;;;2.42;;
16272;SDS011;8244;50.044;9.006;2022-09-04T01:51:08;6.13;;;3.50;;
16272;SDS011;8244;50.044;9.006;2022-09-04T01:56:18;8.23;;;3.20;;
16272;SDS011;8244;50.044;9.006;2022-09-04T02:01:25;4.60;;;3.00;;
16272;SDS011;8244;50.044;9.006;2022-09-04T02:06:38;4.38;;;2.40;;
16272;SDS011;8244;50.044;9.006;2022-09-04T02:11:47;4.32;;;2.85;;
16272;SDS011;8244;50.044;9.006;2022-09-04T02:17:00;3.45;;;3.00;;
16272;SDS011;8244;50.044;9.006;2022-09-04T02:22:13;4.25;;;3.30;;
16272;SDS011;8244;50.044;9.006;2022-09-04T02:27:23;7.25;;;3.50;;
16272;SDS011;8244;50.044;9.006;2022-09-04T02:32:31;5.75;;;3.50;;
16272;SDS011;8244;50.044;9.006;2022-09-04T02:37:42;5.90;;;2.80;;
16272;SDS011;8244;50.044;9.006;2022-09-04T02:42:54;5.47;;;3.00;;
16272;SDS011;8244;50.044;9.006;2022-09-04T02:48:13;5.85;;;3.05;;
16272;SDS011;8244;50.044;9.006;2022-09-04T02:53:25;2.92;;;2.60;;
16272;SDS011;8244;50.044;9.006;2022-09-04T02:58:32;4.63;;;2.83;;
16272;SDS011;8244;50.044;9.006;2022-09-04T03:03:44;3.50;;;2.85;;
16272;SDS011;8244;50.044;9.006;2022-09-04T03:08:54;3.47;;;2.75;;
16272;SDS011;8244;50.044;9.006;2022-09-04T03:14:03;4.10;;;3.20;;
16272;SDS011;8244;50.044;9.006;2022-09-04T03:19:13;3.65;;;3.30;;
16272;SDS011;8244;50.044;9.006;2022-09-04T03:24:21;10.23;;;4.47;;
16272;SDS011;8244;50.044;9.006;2022-09-04T03:29:29;4.55;;;3.40;;
16272;SDS011;8244;50.044;9.006;2022-09-04T03:34:40;4.32;;;3.30;;
16272;SDS011;8244;50.044;9.006;2022-09-04T03:39:50;5.38;;;3.60;;
16272;SDS011;8244;50.044;9.006;2022-09-04T03:45:06;3.92;;;3.08;;
16272;SDS011;8244;50.044;9.006;2022-09-04T03:50:17;4.65;;;3.40;;
16272;SDS011;8244;50.044;9.006;2022-09-04T03:55:33;3.40;;;3.10;;
16272;SDS011;8244;50.044;9.006;2022-09-04T04:00:48;5.70;;;3.60;;
16272;SDS011;8244;50.044;9.006;2022-09-04T04:05:59;4.50;;;3.85;;
16272;SDS011;8244;50.044;9.006;2022-09-04T04:11:17;6.45;;;4.50;;
16272;SDS011;8244;50.044;9.006;2022-09-04T04:16:33;4.82;;;3.80;;
16272;SDS011;8244;50.044;9.006;2022-09-04T04:21:45;5.07;;;3.80;;
16272;SDS011;8244;50.044;9.006;2022-09-04T04:26:59;4.72;;;3.70;;
16272;SDS011;8244;50.044;9.006;2022-09-04T04:32:20;3.97;;;3.38;;
16272;SDS011;8244;50.044;9.006;2022-09-04T04:37:34;4.47;;;3.45;;
16272;SDS011;8244;50.044;9.006;2022-09-04T04:42:53;4.15;;;3.55;;
16272;SDS011;8244;50.044;9.006;2022-09-04T04:48:16;4.25;;;3.28;;
16272;SDS011;8244;50.044;9.006;2022-09-04T04:53:41;5.28;;;3.83;;
16272;SDS011;8244;50.044;9.006;2022-09-04T04:59:02;6.43;;;4.35;;
16272;SDS011;8244;50.044;9.006;2022-09-04T05:04:21;8.07;;;4.03;;
16272;SDS011;8244;50.044;9.006;2022-09-04T05:09:33;5.63;;;4.30;;
16272;SDS011;8244;50.044;9.006;2022-09-04T05:14:44;7.30;;;4.75;;
16272;SDS011;8244;50.044;9.006;2022-09-04T05:19:51;7.05;;;4.45;;
16272;SDS011;8244;50.044;9.006;2022-09-04T05:25:01;5.97;;;4.43;;
16272;SDS011;8244;50.044;9.006;2022-09-04T05:30:12;7.35;;;4.40;;
16272;SDS011;8244;50.044;9.006;2022-09-04T05:35:18;7.45;;;4.40;;
16272;SDS011;8244;50.044;9.006;2022-09-04T05:40:27;9.40;;;4.40;;
16272;SDS011;8244;50.044;9.006;2022-09-04T05:45:37;5.07;;;3.95;;
16272;SDS011;8244;50.044;9.006;2022-09-04T05:50:51;5.00;;;3.70;;
16272;SDS011;8244;50.044;9.006;2022-09-04T06:02:14;6.10;;;4.75;;
16272;SDS011;8244;50.044;9.006;2022-09-04T06:07:26;7.10;;;5.68;;
16272;SDS011;8244;50.044;9.006;2022-09-04T06:12:47;8.05;;;5.13;;
16272;SDS011;8244;50.044;9.006;2022-09-04T06:18:16;8.93;;;5.20;;
16272;SDS011;8244;50.044;9.006;2022-09-04T06:23:43;6.32;;;5.50;;
16272;SDS011;8244;50.044;9.006;2022-09-04T06:29:06;7.75;;;5.25;;
16272;SDS011;8244;50.044;9.006;2022-09-04T06:34:34;8.05;;;5.38;;
16272;SDS011;8244;50.044;9.006;2022-09-04T06:40:04;6.28;;;5.13;;
16272;SDS011;8244;50.044;9.006;2022-09-04T06:45:17;6.70;;;4.85;;
16272;SDS011;8244;50.044;9.006;2022-09-04T06:50:28;7.20;;;5.55;;
16272;SDS011;8244;50.044;9.006;2022-09-04T06:55:37;7.57;;;5.43;;
16272;SDS011;8244;50.044;9.006;2022-09-04T07:00:44;6.55;;;5.30;;
16272;SDS011;8244;50.044;9.006;2022-09-04T07:05:56;8.77;;;5.35;;
16272;SDS011;8244;50.044;9.006;2022-09-04T07:11:02;6.40;;;4.65;;
16272;SDS011;8244;50.044;9.006;2022-09-04T07:16:25;7.07;;;5.38;;
16272;SDS011;8244;50.044;9.006;2022-09-04T07:21:38;7.18;;;5.57;;
16272;SDS011;8244;50.044;9.006;2022-09-04T07:26:50;7.30;;;5.30;;
16272;SDS011;8244;50.044;9.006;2022-09-04T07:32:03;6.43;;;4.65;;
16272;SDS011;8244;50.044;9.006;2022-09-04T07:37:13;5.57;;;4.40;;
16272;SDS011;8244;50.044;9.006;2022-09-04T07:42:28;6.43;;;4.00;;
16272;SDS011;8244;50.044;9.006;2022-09-04T07:47:35;6.22;;;4.65;;
16272;SDS011;8244;50.044;9.006;2022-09-04T07:52:55;7.28;;;4.45;;
16272;SDS011;8244;50.044;9.006;2022-09-04T07:58:17;6.75;;;5.10;;
16272;SDS011;8244;50.044;9.006;2022-09-04T08:03:33;9.13;;;4.70;;
16272;SDS011;8244;50.044;9.006;2022-09-04T08:14:16;9.90;;;5.18;;
16272;SDS011;8244;50.044;9.006;2022-09-04T08:19:27;8.30;;;5.38;;
16272;SDS011;8244;50.044;9.006;2022-09-04T08:24:54;11.30;;;7.25;;
16272;SDS011;8244;50.044;9.006;2022-09-04T08:30:18;12.63;;;7.80;;
16272;SDS011;8244;50.044;9.006;2022-09-04T08:35:21;10.70;;;7.03;;
16272;SDS011;8244;50.044;9.006;2022-09-04T08:40:34;12.07;;;7.90;;
16272;SDS011;8244;50.044;9.006;2022-09-04T08:46:08;10.52;;;6.97;;
16272;SDS011;8244;50.044;9.006;2022-09-04T08:57:24;9.32;;;6.35;;
16272;SDS011;8244;50.044;9.006;2022-09-04T09:03:01;10.75;;;6.53;;
16272;SDS011;8244;50.044;9.006;2022-09-04T09:19:42;7.97;;;4.95;;
16272;SDS011;8244;50.044;9.006;2022-09-04T09:24:52;7.63;;;4.90;;
16272;SDS011;8244;50.044;9.006;2022-09-04T09:30:12;8.05;;;5.28;;
16272;SDS011;8244;50.044;9.006;2022-09-04T09:41:22;8.15;;;4.93;;
16272;SDS011;8244;50.044;9.006;2022-09-04T09:52:57;6.03;;;4.30;;
16272;SDS011;8244;50.044;9.006;2022-09-04T09:58:22;8.90;;;5.03;;
16272;SDS011;8244;50.044;9.006;2022-09-04T10:04:04;6.40;;;4.10;;
16272;SDS011;8244;50.044;9.006;2022-09-04T10:09:31;5.82;;;3.83;;
16272;SDS011;8244;50.044;9.006;2022-09-04T10:14:54;6.78;;;4.30;;
16272;SDS011;8244;50.044;9.006;2022-09-04T10:31:44;7.35;;;4.60;;
16272;SDS011;8244;50.044;9.006;2022-09-04T10:37:02;7.45;;;4.53;;
16272;SDS011;8244;50.044;9.006;2022-09-04T10:42:23;5.75;;;4.15;;
16272;SDS011;8244;50.044;9.006;2022-09-04T10:47:41;4.50;;;3.60;;
16272;SDS011;8244;50.044;9.006;2022-09-04T10:53:12;6.18;;;3.65;;
16272;SDS011;8244;50.044;9.006;2022-09-04T10:58:32;4.70;;;2.97;;
16272;SDS011;8244;50.044;9.006;2022-09-04T11:03:51;4.60;;;3.30;;
16272;SDS011;8244;50.044;9.006;2022-09-04T11:09:21;8.23;;;4.10;;
16272;SDS011;8244;50.044;9.006;2022-09-04T11:14:40;4.90;;;3.10;;
16272;SDS011;8244;50.044;9.006;2022-09-04T11:26:09;5.00;;;2.60;;
16272;SDS011;8244;50.044;9.006;2022-09-04T11:31:43;5.13;;;3.20;;
16272;SDS011;8244;50.044;9.006;2022-09-04T11:37:07;5.57;;;3.40;;
16272;SDS011;8244;50.044;9.006;2022-09-04T11:42:34;4.00;;;3.00;;
16272;SDS011;8244;50.044;9.006;2022-09-04T11:47:46;3.70;;;2.70;;
16272;SDS011;8244;50.044;9.006;2022-09-04T11:53:16;3.72;;;2.70;;
16272;SDS011;8244;50.044;9.006;2022-09-04T11:58:49;6.30;;;3.05;;
16272;SDS011;8244;50.044;9.006;2022-09-04T12:04:19;3.63;;;2.75;;
16272;SDS011;8244;50.044;9.006;2022-09-04T12:09:43;3.65;;;2.50;;
16272;SDS011;8244;50.044;9.006;2022-09-04T12:15:19;3.33;;;2.47;;
16272;SDS011;8244;50.044;9.006;2022-09-04T12:20:42;2.80;;;2.30;;
16272;SDS011;8244;50.044;9.006;2022-09-04T12:37:41;2.08;;;1.90;;
16272;SDS011;8244;50.044;9.006;2022-09-04T12:42:57;2.30;;;1.95;;
16272;SDS011;8244;50.044;9.006;2022-09-04T12:48:09;4.53;;;2.10;;
16272;SDS011;8244;50.044;9.006;2022-09-04T12:53:31;3.05;;;2.75;;
16272;SDS011;8244;50.044;9.006;2022-09-04T12:59:05;2.53;;;2.10;;
16272;SDS011;8244;50.044;9.006;2022-09-04T13:04:19;3.95;;;2.40;;
16272;SDS011;8244;50.044;9.006;2022-09-04T13:09:28;2.85;;;2.60;;
16272;SDS011;8244;50.044;9.006;2022-09-04T13:14:45;3.67;;;2.50;;
16272;SDS011;8244;50.044;9.006;2022-09-04T13:20:06;4.75;;;2.30;;
16272;SDS011;8244;50.044;9.006;2022-09-04T13:25:22;2.50;;;2.30;;
16272;SDS011;8244;50.044;9.006;2022-09-04T13:30:32;3.25;;;2.13;;
16272;SDS011;8244;50.044;9.006;2022-09-04T13:35:48;3.33;;;2.55;;
16272;SDS011;8244;50.044;9.006;2022-09-04T13:41:05;2.70;;;2.30;;
16272;SDS011;8244;50.044;9.006;2022-09-04T13:46:35;3.03;;;2.30;;
16272;SDS011;8244;50.044;9.006;2022-09-04T13:51:42;2.53;;;2.28;;
16272;SDS011;8244;50.044;9.006;2022-09-04T13:56:49;2.85;;;2.22;;
16272;SDS011;8244;50.044;9.006;2022-09-04T14:02:00;3.03;;;2.33;;
16272;SDS011;8244;50.044;9.006;2022-09-04T14:07:05;2.50;;;2.10;;
16272;SDS011;8244;50.044;9.006;2022-09-04T14:12:19;2.78;;;1.92;;
16272;SDS011;8244;50.044;9.006;2022-09-04T14:17:43;2.35;;;1.85;;
16272;SDS011;8244;50.044;9.006;2022-09-04T14:22:55;4.93;;;1.70;;
16272;SDS011;8244;50.044;9.006;2022-09-04T14:28:09;1.80;;;1.65;;
16272;SDS011;8244;50.044;9.006;2022-09-04T14:33:20;2.85;;;1.55;;
16272;SDS011;8244;50.044;9.006;2022-09-04T14:38:32;2.15;;;1.58;;
16272;SDS011;8244;50.044;9.006;2022-09-04T14:43:59;1.52;;;1.38;;
16272;SDS011;8244;50.044;9.006;2022-09-04T14:49:07;5.55;;;1.88;;
16272;SDS011;8244;50.044;9.006;2022-09-04T14:54:13;1.63;;;1.42;;
16272;SDS011;8244;50.044;9.006;2022-09-04T14:59:19;3.03;;;1.42;;
16272;SDS011;8244;50.044;9.006;2022-09-04T15:04:26;2.20;;;1.40;;
16272;SDS011;8244;50.044;9.006;2022-09-04T15:09:34;3.25;;;1.60;;
16272;SDS011;8244;50.044;9.006;2022-09-04T15:14:41;1.88;;;1.48;;
16272;SDS011;8244;50.044;9.006;2022-09-04T15:19:47;1.88;;;1.20;;
16272;SDS011;8244;50.044;9.006;2022-09-04T15:24:54;2.97;;;1.60;;
16272;SDS011;8244;50.044;9.006;2022-09-04T15:30:04;1.48;;;1.38;;
16272;SDS011;8244;50.044;9.006;2022-09-04T15:35:12;2.58;;;1.50;;
16272;SDS011;8244;50.044;9.006;2022-09-04T15:40:21;1.50;;;1.38;;
16272;SDS011;8244;50.044;9.006;2022-09-04T15:45:30;2.03;;;1.33;;
16272;SDS011;8244;50.044;9.006;2022-09-04T15:50:49;2.42;;;1.27;;
16272;SDS011;8244;50.044;9.006;2022-09-04T15:56:05;0.95;;;0.95;;
16272;SDS011;8244;50.044;9.006;2022-09-04T16:01:14;1.30;;;1.20;;
16272;SDS011;8244;50.044;9.006;2022-09-04T16:06:19;1.20;;;1.17;;
16272;SDS011;8244;50.044;9.006;2022-09-04T16:11:25;1.20;;;1.15;;
16272;SDS011;8244;50.044;9.006;2022-09-04T16:16:37;1.58;;;1.23;;
16272;SDS011;8244;50.044;9.006;2022-09-04T16:21:45;2.53;;;1.20;;
16272;SDS011;8244;50.044;9.006;2022-09-04T16:26:52;2.05;;;1.50;;
16272;SDS011;8244;50.044;9.006;2022-09-04T16:31:56;2.10;;;1.40;;
16272;SDS011;8244;50.044;9.006;2022-09-04T16:36:59;3.15;;;1.35;;
16272;SDS011;8244;50.044;9.006;2022-09-04T16:42:09;1.38;;;1.27;;
16272;SDS011;8244;50.044;9.006;2022-09-04T16:47:20;1.48;;;1.30;;
16272;SDS011;8244;50.044;9.006;2022-09-04T16:52:42;2.17;;;1.60;;
16272;SDS011;8244;50.044;9.006;2022-09-04T16:57:51;3.08;;;1.70;;
16272;SDS011;8244;50.044;9.006;2022-09-04T17:03:06;1.73;;;1.40;;
16272;SDS011;8244;50.044;9.006;2022-09-04T17:08:21;1.60;;;1.42;;
16272;SDS011;8244;50.044;9.006;2022-09-04T17:13:31;1.63;;;1.52;;
16272;SDS011;8244;50.044;9.006;2022-09-04T17:18:43;3.80;;;1.95;;
16272;SDS011;8244;50.044;9.006;2022-09-04T17:23:47;2.83;;;2.00;;
16272;SDS011;8244;50.044;9.006;2022-09-04T17:28:54;3.38;;;1.90;;
16272;SDS011;8244;50.044;9.006;2022-09-04T17:34:04;2.03;;;1.50;;
16272;SDS011;8244;50.044;9.006;2022-09-04T17:39:19;2.15;;;1.60;;
16272;SDS011;8244;50.044;9.006;2022-09-04T17:44:30;2.20;;;1.25;;
16272;SDS011;8244;50.044;9.006;2022-09-04T17:49:47;1.10;;;1.10;;
16272;SDS011;8244;50.044;9.006;2022-09-04T17:54:51;3.20;;;1.42;;
16272;SDS011;8244;50.044;9.006;2022-09-04T17:59:59;1.30;;;1.20;;
16272;SDS011;8244;50.044;9.006;2022-09-04T18:05:09;2.72;;;1.42;;
16272;SDS011;8244;50.044;9.006;2022-09-04T18:10:17;1.50;;;1.40;;
16272;SDS011;8244;50.044;9.006;2022-09-04T18:15:28;1.45;;;1.35;;
16272;SDS011;8244;50.044;9.006;2022-09-04T18:20:37;7.30;;;2.17;;
16272;SDS011;8244;50.044;9.006;2022-09-04T18:25:44;2.40;;;1.58;;
16272;SDS011;8244;50.044;9.006;2022-09-04T18:30:58;2.58;;;1.40;;
16272;SDS011;8244;50.044;9.006;2022-09-04T18:36:18;2.92;;;1.80;;
16272;SDS011;8244;50.044;9.006;2022-09-04T18:41:28;4.07;;;1.60;;
16272;SDS011;8244;50.044;9.006;2022-09-04T18:46:31;3.92;;;1.40;;
16272;SDS011;8244;50.044;9.006;2022-09-04T18:51:38;3.53;;;1.90;;
16272;SDS011;8244;50.044;9.006;2022-09-04T18:56:51;3.53;;;1.65;;
16272;SDS011;8244;50.044;9.006;2022-09-04T19:01:56;2.00;;;1.45;;
16272;SDS011;8244;50.044;9.006;2022-09-04T19:07:05;3.05;;;1.90;;
16272;SDS011;8244;50.044;9.006;2022-09-04T19:12:10;3.42;;;1.60;;
16272;SDS011;8244;50.044;9.006;2022-09-04T19:17:20;3.55;;;1.83;;
16272;SDS011;8244;50.044;9.006;2022-09-04T19:22:26;2.13;;;1.77;;
16272;SDS011;8244;50.044;9.006;2022-09-04T19:27:35;2.22;;;1.58;;
16272;SDS011;8244;50.044;9.006;2022-09-04T19:32:39;2.50;;;1.73;;
16272;SDS011;8244;50.044;9.006;2022-09-04T19:37:54;2.72;;;1.70;;
16272;SDS011;8244;50.044;9.006;2022-09-04T19:43:00;2.63;;;2.25;;
16272;SDS011;8244;50.044;9.006;2022-09-04T19:48:17;2.42;;;2.00;;
16272;SDS011;8244;50.044;9.006;2022-09-04T19:53:31;3.30;;;2.10;;
16272;SDS011;8244;50.044;9.006;2022-09-04T19:58:36;3.08;;;1.85;;
16272;SDS011;8244;50.044;9.006;2022-09-04T20:03:44;2.10;;;1.70;;
16272;SDS011;8244;50.044;9.006;2022-09-04T20:08:53;2.42;;;2.00;;
16272;SDS011;8244;50.044;9.006;2022-09-04T20:14:01;4.70;;;1.98;;
16272;SDS011;8244;50.044;9.006;2022-09-04T20:19:14;2.78;;;2.10;;
16272;SDS011;8244;50.044;9.006;2022-09-04T20:24:23;3.17;;;2.05;;
16272;SDS011;8244;50.044;9.006;2022-09-04T20:29:29;3.90;;;2.20;;
16272;SDS011;8244;50.044;9.006;2022-09-04T20:34:40;4.97;;;2.10;;
16272;SDS011;8244;50.044;9.006;2022-09-04T20:39:51;3.83;;;2.10;;
16272;SDS011;8244;50.044;9.006;2022-09-04T20:45:03;3.47;;;2.47;;
16272;SDS011;8244;50.044;9.006;2022-09-04T20:50:20;2.40;;;2.17;;
16272;SDS011;8244;50.044;9.006;2022-09-04T20:55:37;2.78;;;2.15;;
16272;SDS011;8244;50.044;9.006;2022-09-04T21:00:56;2.88;;;2.30;;
16272;SDS011;8244;50.044;9.006;2022-09-04T21:06:16;2.47;;;2.28;;
16272;SDS011;8244;50.044;9.006;2022-09-04T21:11:26;3.28;;;2.20;;
16272;SDS011;8244;50.044;9.006;2022-09-04T21:16:34;3.95;;;2.20;;
16272;SDS011;8244;50.044;9.006;2022-09-04T21:21:54;4.95;;;2.63;;
16272;SDS011;8244;50.044;9.006;2022-09-04T21:27:26;3.03;;;2.40;;
16272;SDS011;8244;50.044;9.006;2022-09-04T21:38:11;4.13;;;2.95;;
16272;SDS011;8244;50.044;9.006;2022-09-04T21:43:38;4.35;;;2.83;;
16272;SDS011;8244;50.044;9.006;2022-09-04T21:49:00;5.43;;;2.90;;
16272;SDS011;8244;50.044;9.006;2022-09-04T21:54:15;5.50;;;3.00;;
16272;SDS011;8244;50.044;9.006;2022-09-04T22:05:09;5.05;;;3.20;;
16272;SDS011;8244;50.044;9.006;2022-09-04T22:15:47;4.95;;;3.00;;
16272;SDS011;8244;50.044;9.006;2022-09-04T22:21:01;5.22;;;3.08;;
16272;SDS011;8244;50.044;9.006;2022-09-04T22:26:28;4.95;;;3.20;;
16272;SDS011;8244;50.044;9.006;2022-09-04T22:31:56;5.43;;;3.55;;
16272;SDS011;8244;50.044;9.006;2022-09-04T22:37:14;5.85;;;3.25;;
16272;SDS011;8244;50.044;9.006;2022-09-04T22:42:44;5.47;;;3.50;;
16272;SDS011;8244;50.044;9.006;2022-09-04T22:48:00;7.40;;;3.90;;
16272;SDS011;8244;50.044;9.006;2022-09-04T22:53:22;5.47;;;3.70;;
16272;SDS011;8244;50.044;9.006;2022-09-04T22:58:49;4.82;;;3.45;;
16272;SDS011;8244;50.044;9.006;2022-09-04T23:04:12;6.03;;;3.08;;
16272;SDS011;8244;50.044;9.006;2022-09-04T23:15:17;5.65;;;4.07;;
16272;SDS011;8244;50.044;9.006;2022-09-04T23:20:39;5.45;;;3.85;;
16272;SDS011;8244;50.044;9.006;2022-09-04T23:26:02;7.03;;;4.65;;
16272;SDS011;8244;50.044;9.006;2022-09-04T23:31:21;6.25;;;4.22;;
16272;SDS011;8244;50.044;9.006;2022-09-04T23:36:46;7.68;;;4.57;;
16272;SDS011;8244;50.044;9.006;2022-09-04T23:42:12;6.10;;;4.30;;
16272;SDS011;8244;50.044;9.006;2022-09-04T23:47:43;7.72;;;4.15;;
16272;SDS011;8244;50.044;9.006;2022-09-04T23:53:07;5.30;;;3.90;;
16272;SDS011;8244;50.044;9.006;2022-09-04T23:58:20;6.85;;;4.15;;
